首页
METAR-TAF:

METAR-TAF

机场 :

拉紹德封, 瑞士

纬度: 47-05-03N, 经度: 006-47-37E, 海拔: 1027米

当前天气观测

该预报发布于35分钟前的02:50 UTC
风速4节,风向西转西南,在南转南东西之间变化
温度 0°C
湿度 80%
气压 999 hPa
能见度10公里或以上
多云层高于1100英尺

METAR: LSGC 140250Z AUTO 24004KT 160V280 9999 BKN011 M00/M03 Q0999

时间: 04:25 (03:25 UTC)

预报

该预报发布于13小时和0分钟前的14:25 UTC
预报有效从13日的 15点(UTC)到 13日的 24点(UTC)
风速6节,风向西南
能见度10公里或以上
多云层高于2000英尺

TAF: LSGC 131425Z 1315/1324 22006KT 9999 BKN020

超过4000个机场的气象观测和天气预报(METAR&TAF报告)。

可查询的气象台以黄色和红色小点在地图上表示。

将鼠标移到小点上方,可查看气象台名称。

然后点击查看天气观测和预报。

如需切换地图:点击带黑十字的绿色按钮放大地图;点击带横线的绿色按钮缩小地图;或者点击绿色箭头查看邻近地区的地图。


METAR-TAF: